sensor_id;sensor_type;location;lat;lon;timestamp;P1;durP1;ratioP1;P2;durP2;ratioP2
43793;SDS011;29414;44.798;20.366;2022-11-20T00:02:29;2.37;;;2.17;;
43793;SDS011;29414;44.798;20.366;2022-11-20T00:06:29;3.53;;;2.37;;
43793;SDS011;29414;44.798;20.366;2022-11-20T00:10:29;2.80;;;2.60;;
43793;SDS011;29414;44.798;20.366;2022-11-20T00:14:30;2.67;;;2.47;;
43793;SDS011;29414;44.798;20.366;2022-11-20T00:18:30;4.57;;;2.37;;
43793;SDS011;29414;44.798;20.366;2022-11-20T00:22:30;2.50;;;2.30;;
43793;SDS011;29414;44.798;20.366;2022-11-20T00:26:31;2.50;;;2.20;;
43793;SDS011;29414;44.798;20.366;2022-11-20T00:30:31;2.87;;;2.67;;
43793;SDS011;29414;44.798;20.366;2022-11-20T00:34:31;3.57;;;3.20;;
43793;SDS011;29414;44.798;20.366;2022-11-20T00:38:32;2.93;;;2.40;;
43793;SDS011;29414;44.798;20.366;2022-11-20T00:42:32;3.77;;;2.70;;
43793;SDS011;29414;44.798;20.366;2022-11-20T00:46:32;3.80;;;2.30;;
43793;SDS011;29414;44.798;20.366;2022-11-20T00:50:34;2.53;;;2.30;;
43793;SDS011;29414;44.798;20.366;2022-11-20T00:54:34;6.43;;;2.87;;
43793;SDS011;29414;44.798;20.366;2022-11-20T00:58:35;3.40;;;3.10;;
43793;SDS011;29414;44.798;20.366;2022-11-20T01:02:35;3.10;;;2.80;;
43793;SDS011;29414;44.798;20.366;2022-11-20T01:06:36;2.97;;;2.77;;
43793;SDS011;29414;44.798;20.366;2022-11-20T01:10:36;3.80;;;3.30;;
43793;SDS011;29414;44.798;20.366;2022-11-20T01:14:37;3.27;;;2.97;;
43793;SDS011;29414;44.798;20.366;2022-11-20T01:18:38;3.73;;;2.93;;
43793;SDS011;29414;44.798;20.366;2022-11-20T01:22:38;3.80;;;2.80;;
43793;SDS011;29414;44.798;20.366;2022-11-20T01:26:39;3.70;;;3.40;;
43793;SDS011;29414;44.798;20.366;2022-11-20T01:30:40;4.13;;;3.73;;
43793;SDS011;29414;44.798;20.366;2022-11-20T01:34:41;4.10;;;3.77;;
43793;SDS011;29414;44.798;20.366;2022-11-20T01:38:41;3.93;;;3.63;;
43793;SDS011;29414;44.798;20.366;2022-11-20T01:42:45;4.80;;;3.60;;
43793;SDS011;29414;44.798;20.366;2022-11-20T01:47:04;3.70;;;3.40;;
43793;SDS011;29414;44.798;20.366;2022-11-20T01:51:06;4.23;;;3.53;;
43793;SDS011;29414;44.798;20.366;2022-11-20T01:55:07;3.60;;;3.30;;
43793;SDS011;29414;44.798;20.366;2022-11-20T01:59:09;3.67;;;3.37;;
43793;SDS011;29414;44.798;20.366;2022-11-20T02:03:12;3.73;;;3.43;;
43793;SDS011;29414;44.798;20.366;2022-11-20T02:07:15;4.60;;;4.00;;
43793;SDS011;29414;44.798;20.366;2022-11-20T02:11:15;3.53;;;3.27;;
43793;SDS011;29414;44.798;20.366;2022-11-20T02:15:16;5.00;;;3.97;;
43793;SDS011;29414;44.798;20.366;2022-11-20T02:27:31;4.27;;;3.87;;
43793;SDS011;29414;44.798;20.366;2022-11-20T02:31:36;4.97;;;4.57;;
43793;SDS011;29414;44.798;20.366;2022-11-20T02:35:44;5.00;;;4.60;;
43793;SDS011;29414;44.798;20.366;2022-11-20T02:39:46;4.93;;;4.53;;
43793;SDS011;29414;44.798;20.366;2022-11-20T02:43:47;4.53;;;4.23;;
43793;SDS011;29414;44.798;20.366;2022-11-20T02:47:47;4.90;;;4.50;;
43793;SDS011;29414;44.798;20.366;2022-11-20T02:51:47;6.23;;;5.63;;
43793;SDS011;29414;44.798;20.366;2022-11-20T02:55:48;5.63;;;5.13;;
43793;SDS011;29414;44.798;20.366;2022-11-20T02:59:48;5.97;;;5.40;;
43793;SDS011;29414;44.798;20.366;2022-11-20T03:03:48;5.90;;;5.30;;
43793;SDS011;29414;44.798;20.366;2022-11-20T03:07:49;5.60;;;5.10;;
43793;SDS011;29414;44.798;20.366;2022-11-20T03:11:49;6.30;;;5.77;;
43793;SDS011;29414;44.798;20.366;2022-11-20T03:15:49;7.33;;;6.73;;
43793;SDS011;29414;44.798;20.366;2022-11-20T03:19:49;8.43;;;7.33;;
43793;SDS011;29414;44.798;20.366;2022-11-20T03:23:50;7.80;;;7.10;;
43793;SDS011;29414;44.798;20.366;2022-11-20T03:27:50;8.27;;;7.47;;
43793;SDS011;29414;44.798;20.366;2022-11-20T03:31:50;8.73;;;7.80;;
43793;SDS011;29414;44.798;20.366;2022-11-20T03:35:51;7.17;;;6.57;;
43793;SDS011;29414;44.798;20.366;2022-11-20T03:39:51;8.03;;;7.33;;
43793;SDS011;29414;44.798;20.366;2022-11-20T03:43:52;9.57;;;7.57;;
43793;SDS011;29414;44.798;20.366;2022-11-20T03:47:52;7.93;;;6.33;;
43793;SDS011;29414;44.798;20.366;2022-11-20T03:51:53;7.10;;;6.50;;
43793;SDS011;29414;44.798;20.366;2022-11-20T03:55:53;8.63;;;7.90;;
43793;SDS011;29414;44.798;20.366;2022-11-20T03:59:53;10.70;;;9.63;;
43793;SDS011;29414;44.798;20.366;2022-11-20T04:03:54;16.00;;;13.23;;
43793;SDS011;29414;44.798;20.366;2022-11-20T04:07:55;14.83;;;13.33;;
43793;SDS011;29414;44.798;20.366;2022-11-20T04:11:55;15.75;;;14.25;;
43793;SDS011;29414;44.798;20.366;2022-11-20T04:15:57;13.97;;;12.57;;
43793;SDS011;29414;44.798;20.366;2022-11-20T04:19:57;14.20;;;12.80;;
43793;SDS011;29414;44.798;20.366;2022-11-20T04:23:57;15.67;;;13.77;;
43793;SDS011;29414;44.798;20.366;2022-11-20T04:27:58;15.00;;;13.27;;
43793;SDS011;29414;44.798;20.366;2022-11-20T04:31:58;14.73;;;13.23;;
43793;SDS011;29414;44.798;20.366;2022-11-20T04:36:05;15.60;;;13.43;;
43793;SDS011;29414;44.798;20.366;2022-11-20T04:40:06;15.73;;;14.13;;
43793;SDS011;29414;44.798;20.366;2022-11-20T04:44:06;17.00;;;15.20;;
43793;SDS011;29414;44.798;20.366;2022-11-20T04:48:07;15.93;;;14.33;;
43793;SDS011;29414;44.798;20.366;2022-11-20T04:52:07;17.08;;;13.75;;
43793;SDS011;29414;44.798;20.366;2022-11-20T04:56:08;16.93;;;13.97;;
43793;SDS011;29414;44.798;20.366;2022-11-20T05:00:10;15.57;;;13.80;;
43793;SDS011;29414;44.798;20.366;2022-11-20T05:04:10;15.50;;;13.73;;
43793;SDS011;29414;44.798;20.366;2022-11-20T05:08:10;15.27;;;13.40;;
43793;SDS011;29414;44.798;20.366;2022-11-20T05:12:11;16.17;;;13.70;;
43793;SDS011;29414;44.798;20.366;2022-11-20T05:16:12;15.93;;;14.07;;
43793;SDS011;29414;44.798;20.366;2022-11-20T05:20:13;17.70;;;13.90;;
43793;SDS011;29414;44.798;20.366;2022-11-20T05:24:13;17.20;;;14.20;;
43793;SDS011;29414;44.798;20.366;2022-11-20T05:28:13;18.07;;;14.87;;
43793;SDS011;29414;44.798;20.366;2022-11-20T05:32:14;21.70;;;15.60;;
43793;SDS011;29414;44.798;20.366;2022-11-20T05:36:14;18.67;;;15.37;;
43793;SDS011;29414;44.798;20.366;2022-11-20T05:40:15;18.87;;;14.43;;
43793;SDS011;29414;44.798;20.366;2022-11-20T05:44:15;17.07;;;14.77;;
43793;SDS011;29414;44.798;20.366;2022-11-20T05:48:15;16.70;;;13.57;;
43793;SDS011;29414;44.798;20.366;2022-11-20T05:52:15;20.65;;;15.10;;
43793;SDS011;29414;44.798;20.366;2022-11-20T05:56:16;19.43;;;15.07;;
43793;SDS011;29414;44.798;20.366;2022-11-20T06:00:17;20.87;;;15.47;;
43793;SDS011;29414;44.798;20.366;2022-11-20T06:04:17;18.50;;;14.27;;
43793;SDS011;29414;44.798;20.366;2022-11-20T06:08:18;21.50;;;13.90;;
43793;SDS011;29414;44.798;20.366;2022-11-20T06:12:18;22.10;;;14.73;;
43793;SDS011;29414;44.798;20.366;2022-11-20T06:16:19;17.93;;;14.60;;
43793;SDS011;29414;44.798;20.366;2022-11-20T06:20:23;19.00;;;14.23;;
43793;SDS011;29414;44.798;20.366;2022-11-20T06:24:23;18.40;;;14.97;;
43793;SDS011;29414;44.798;20.366;2022-11-20T06:28:25;15.73;;;14.13;;
43793;SDS011;29414;44.798;20.366;2022-11-20T06:32:25;19.23;;;16.67;;
43793;SDS011;29414;44.798;20.366;2022-11-20T06:36:25;22.53;;;15.17;;
43793;SDS011;29414;44.798;20.366;2022-11-20T06:40:26;19.83;;;15.30;;
43793;SDS011;29414;44.798;20.366;2022-11-20T06:44:26;16.73;;;13.60;;
43793;SDS011;29414;44.798;20.366;2022-11-20T06:48:27;19.57;;;13.43;;
43793;SDS011;29414;44.798;20.366;2022-11-20T06:52:27;14.90;;;13.37;;
43793;SDS011;29414;44.798;20.366;2022-11-20T06:56:27;17.13;;;12.93;;
43793;SDS011;29414;44.798;20.366;2022-11-20T07:00:28;16.67;;;13.57;;
43793;SDS011;29414;44.798;20.366;2022-11-20T07:04:28;14.97;;;12.83;;
43793;SDS011;29414;44.798;20.366;2022-11-20T07:08:29;15.97;;;12.97;;
43793;SDS011;29414;44.798;20.366;2022-11-20T07:12:29;16.77;;;14.67;;
43793;SDS011;29414;44.798;20.366;2022-11-20T07:16:29;20.30;;;15.97;;
43793;SDS011;29414;44.798;20.366;2022-11-20T07:20:29;18.50;;;14.90;;
43793;SDS011;29414;44.798;20.366;2022-11-20T07:24:30;16.60;;;14.50;;
43793;SDS011;29414;44.798;20.366;2022-11-20T07:28:30;17.17;;;14.43;;
43793;SDS011;29414;44.798;20.366;2022-11-20T07:32:30;25.53;;;20.63;;
43793;SDS011;29414;44.798;20.366;2022-11-20T07:36:31;19.10;;;15.97;;
43793;SDS011;29414;44.798;20.366;2022-11-20T07:40:31;13.63;;;12.23;;
43793;SDS011;29414;44.798;20.366;2022-11-20T07:44:31;11.43;;;8.10;;
43793;SDS011;29414;44.798;20.366;2022-11-20T07:48:31;10.37;;;8.13;;
43793;SDS011;29414;44.798;20.366;2022-11-20T07:52:32;9.10;;;7.03;;
43793;SDS011;29414;44.798;20.366;2022-11-20T07:56:32;11.53;;;7.33;;
43793;SDS011;29414;44.798;20.366;2022-11-20T08:00:32;7.20;;;6.50;;
43793;SDS011;29414;44.798;20.366;2022-11-20T08:04:33;8.47;;;7.20;;
43793;SDS011;29414;44.798;20.366;2022-11-20T08:08:33;11.60;;;10.40;;
43793;SDS011;29414;44.798;20.366;2022-11-20T08:12:33;12.37;;;11.10;;
43793;SDS011;29414;44.798;20.366;2022-11-20T08:16:52;17.10;;;11.33;;
43793;SDS011;29414;44.798;20.366;2022-11-20T08:20:53;13.03;;;10.43;;
43793;SDS011;29414;44.798;20.366;2022-11-20T08:24:53;10.57;;;9.47;;
43793;SDS011;29414;44.798;20.366;2022-11-20T08:28:54;7.97;;;7.20;;
43793;SDS011;29414;44.798;20.366;2022-11-20T08:32:54;11.63;;;9.67;;
43793;SDS011;29414;44.798;20.366;2022-11-20T08:36:55;10.73;;;8.20;;
43793;SDS011;29414;44.798;20.366;2022-11-20T08:40:58;10.80;;;8.93;;
43793;SDS011;29414;44.798;20.366;2022-11-20T08:45:18;11.07;;;9.47;;
43793;SDS011;29414;44.798;20.366;2022-11-20T08:49:18;12.93;;;10.17;;
43793;SDS011;29414;44.798;20.366;2022-11-20T08:53:18;12.67;;;10.43;;
43793;SDS011;29414;44.798;20.366;2022-11-20T08:57:19;14.53;;;10.50;;
43793;SDS011;29414;44.798;20.366;2022-11-20T09:01:19;14.43;;;11.27;;
43793;SDS011;29414;44.798;20.366;2022-11-20T09:05:20;17.10;;;11.50;;
43793;SDS011;29414;44.798;20.366;2022-11-20T09:09:20;13.30;;;10.60;;
43793;SDS011;29414;44.798;20.366;2022-11-20T09:13:20;13.07;;;11.40;;
43793;SDS011;29414;44.798;20.366;2022-11-20T09:17:21;12.17;;;10.07;;
43793;SDS011;29414;44.798;20.366;2022-11-20T09:21:21;14.17;;;10.47;;
43793;SDS011;29414;44.798;20.366;2022-11-20T09:25:22;12.00;;;9.30;;
43793;SDS011;29414;44.798;20.366;2022-11-20T09:29:23;13.80;;;10.17;;
43793;SDS011;29414;44.798;20.366;2022-11-20T09:33:23;13.83;;;10.93;;
43793;SDS011;29414;44.798;20.366;2022-11-20T09:37:23;14.13;;;12.40;;
43793;SDS011;29414;44.798;20.366;2022-11-20T09:41:36;16.80;;;14.73;;
43793;SDS011;29414;44.798;20.366;2022-11-20T09:58:24;21.53;;;17.03;;
43793;SDS011;29414;44.798;20.366;2022-11-20T10:07:11;18.97;;;15.13;;
43793;SDS011;29414;44.798;20.366;2022-11-20T10:10:47;18.27;;;14.07;;
43793;SDS011;29414;44.798;20.366;2022-11-20T10:14:52;17.80;;;14.23;;
43793;SDS011;29414;44.798;20.366;2022-11-20T10:23:00;16.43;;;14.27;;
43793;SDS011;29414;44.798;20.366;2022-11-20T10:35:32;23.63;;;16.43;;
43793;SDS011;29414;44.798;20.366;2022-11-20T10:43:41;21.17;;;14.67;;
43793;SDS011;29414;44.798;20.366;2022-11-20T10:47:41;19.10;;;13.80;;
43793;SDS011;29414;44.798;20.366;2022-11-20T10:55:44;17.25;;;13.68;;
43793;SDS011;29414;44.798;20.366;2022-11-20T11:03:55;18.03;;;16.13;;
43793;SDS011;29414;44.798;20.366;2022-11-20T11:07:56;16.03;;;13.43;;
43793;SDS011;29414;44.798;20.366;2022-11-20T11:11:57;15.80;;;12.53;;
43793;SDS011;29414;44.798;20.366;2022-11-20T11:15:57;14.77;;;12.57;;
43793;SDS011;29414;44.798;20.366;2022-11-20T11:24:14;22.37;;;18.83;;
43793;SDS011;29414;44.798;20.366;2022-11-20T11:28:19;23.87;;;19.47;;
43793;SDS011;29414;44.798;20.366;2022-11-20T11:32:20;24.50;;;17.00;;
43793;SDS011;29414;44.798;20.366;2022-11-20T11:36:21;20.67;;;16.90;;
43793;SDS011;29414;44.798;20.366;2022-11-20T11:40:24;21.43;;;16.70;;
43793;SDS011;29414;44.798;20.366;2022-11-20T11:48:59;21.90;;;17.30;;
43793;SDS011;29414;44.798;20.366;2022-11-20T11:57:00;17.35;;;14.88;;
43793;SDS011;29414;44.798;20.366;2022-11-20T12:01:03;20.03;;;15.50;;
43793;SDS011;29414;44.798;20.366;2022-11-20T12:09:17;19.97;;;16.77;;
43793;SDS011;29414;44.798;20.366;2022-11-20T12:17:24;25.23;;;19.17;;
43793;SDS011;29414;44.798;20.366;2022-11-20T12:21:32;20.97;;;16.67;;
43793;SDS011;29414;44.798;20.366;2022-11-20T12:25:35;21.10;;;16.53;;
43793;SDS011;29414;44.798;20.366;2022-11-20T12:34:12;20.47;;;17.80;;
43793;SDS011;29414;44.798;20.366;2022-11-20T12:42:34;30.93;;;23.40;;
43793;SDS011;29414;44.798;20.366;2022-11-20T12:47:13;25.67;;;19.17;;
43793;SDS011;29414;44.798;20.366;2022-11-20T12:51:39;25.27;;;20.27;;
43793;SDS011;29414;44.798;20.366;2022-11-20T13:00:20;29.97;;;23.30;;
43793;SDS011;29414;44.798;20.366;2022-11-20T13:08:25;23.77;;;19.67;;
43793;SDS011;29414;44.798;20.366;2022-11-20T13:12:44;24.93;;;19.20;;
43793;SDS011;29414;44.798;20.366;2022-11-20T13:21:14;24.90;;;20.67;;
43793;SDS011;29414;44.798;20.366;2022-11-20T13:25:21;24.10;;;19.50;;
43793;SDS011;29414;44.798;20.366;2022-11-20T13:29:22;23.67;;;18.37;;
43793;SDS011;29414;44.798;20.366;2022-11-20T13:33:23;23.43;;;18.30;;
43793;SDS011;29414;44.798;20.366;2022-11-20T13:37:36;23.73;;;19.50;;
43793;SDS011;29414;44.798;20.366;2022-11-20T13:41:36;24.87;;;19.83;;
43793;SDS011;29414;44.798;20.366;2022-11-20T13:45:40;27.67;;;20.37;;
43793;SDS011;29414;44.798;20.366;2022-11-20T13:49:41;22.33;;;16.87;;
43793;SDS011;29414;44.798;20.366;2022-11-20T14:02:01;25.87;;;18.93;;
43793;SDS011;29414;44.798;20.366;2022-11-20T14:06:02;25.00;;;17.50;;
43793;SDS011;29414;44.798;20.366;2022-11-20T14:10:03;21.50;;;17.33;;
43793;SDS011;29414;44.798;20.366;2022-11-20T14:14:16;22.90;;;16.67;;
43793;SDS011;29414;44.798;20.366;2022-11-20T14:18:20;21.03;;;16.10;;
43793;SDS011;29414;44.798;20.366;2022-11-20T14:22:22;18.43;;;15.37;;
43793;SDS011;29414;44.798;20.366;2022-11-20T14:26:23;22.57;;;18.10;;
43793;SDS011;29414;44.798;20.366;2022-11-20T14:30:42;22.10;;;17.43;;
43793;SDS011;29414;44.798;20.366;2022-11-20T14:34:44;22.80;;;17.93;;
43793;SDS011;29414;44.798;20.366;2022-11-20T14:38:45;21.73;;;17.97;;
43793;SDS011;29414;44.798;20.366;2022-11-20T14:42:46;24.07;;;18.93;;
43793;SDS011;29414;44.798;20.366;2022-11-20T14:46:46;23.17;;;18.67;;
43793;SDS011;29414;44.798;20.366;2022-11-20T14:50:46;25.43;;;18.17;;
43793;SDS011;29414;44.798;20.366;2022-11-20T14:54:51;22.70;;;18.37;;
43793;SDS011;29414;44.798;20.366;2022-11-20T14:58:55;20.77;;;16.70;;
43793;SDS011;29414;44.798;20.366;2022-11-20T15:02:55;22.40;;;18.33;;
43793;SDS011;29414;44.798;20.366;2022-11-20T15:06:57;24.37;;;19.63;;
43793;SDS011;29414;44.798;20.366;2022-11-20T15:10:58;30.70;;;24.97;;
43793;SDS011;29414;44.798;20.366;2022-11-20T15:14:58;21.47;;;18.33;;
43793;SDS011;29414;44.798;20.366;2022-11-20T15:18:59;25.13;;;18.63;;
43793;SDS011;29414;44.798;20.366;2022-11-20T15:23:00;25.93;;;20.30;;
43793;SDS011;29414;44.798;20.366;2022-11-20T15:27:00;22.70;;;18.03;;
43793;SDS011;29414;44.798;20.366;2022-11-20T15:31:00;19.60;;;15.47;;
43793;SDS011;29414;44.798;20.366;2022-11-20T15:35:02;24.80;;;17.43;;
43793;SDS011;29414;44.798;20.366;2022-11-20T15:39:02;20.73;;;16.80;;
43793;SDS011;29414;44.798;20.366;2022-11-20T15:43:02;22.97;;;17.03;;
43793;SDS011;29414;44.798;20.366;2022-11-20T15:47:03;19.20;;;15.57;;
43793;SDS011;29414;44.798;20.366;2022-11-20T15:51:06;22.87;;;17.30;;
43793;SDS011;29414;44.798;20.366;2022-11-20T15:55:10;22.73;;;18.30;;
43793;SDS011;29414;44.798;20.366;2022-11-20T15:59:10;26.17;;;20.93;;
43793;SDS011;29414;44.798;20.366;2022-11-20T16:03:11;27.30;;;21.00;;
43793;SDS011;29414;44.798;20.366;2022-11-20T16:07:11;24.20;;;19.60;;
43793;SDS011;29414;44.798;20.366;2022-11-20T16:11:14;31.80;;;26.07;;
43793;SDS011;29414;44.798;20.366;2022-11-20T16:15:14;33.13;;;26.37;;
43793;SDS011;29414;44.798;20.366;2022-11-20T16:19:33;33.87;;;26.27;;
43793;SDS011;29414;44.798;20.366;2022-11-20T16:23:33;26.60;;;23.00;;
43793;SDS011;29414;44.798;20.366;2022-11-20T16:27:34;30.57;;;24.63;;
43793;SDS011;29414;44.798;20.366;2022-11-20T16:31:34;28.13;;;23.25;;
43793;SDS011;29414;44.798;20.366;2022-11-20T16:35:34;28.87;;;23.20;;
43793;SDS011;29414;44.798;20.366;2022-11-20T16:39:35;29.73;;;23.17;;
43793;SDS011;29414;44.798;20.366;2022-11-20T16:43:35;26.30;;;22.60;;
43793;SDS011;29414;44.798;20.366;2022-11-20T16:47:35;28.53;;;22.37;;
43793;SDS011;29414;44.798;20.366;2022-11-20T16:51:36;25.07;;;21.33;;
43793;SDS011;29414;44.798;20.366;2022-11-20T16:55:36;26.73;;;21.73;;
43793;SDS011;29414;44.798;20.366;2022-11-20T16:59:36;29.05;;;21.98;;
43793;SDS011;29414;44.798;20.366;2022-11-20T17:03:37;26.30;;;20.90;;
43793;SDS011;29414;44.798;20.366;2022-11-20T17:07:37;26.33;;;21.77;;
43793;SDS011;29414;44.798;20.366;2022-11-20T17:11:38;30.37;;;24.77;;
43793;SDS011;29414;44.798;20.366;2022-11-20T17:15:38;33.37;;;26.07;;
43793;SDS011;29414;44.798;20.366;2022-11-20T17:19:39;33.20;;;25.77;;
43793;SDS011;29414;44.798;20.366;2022-11-20T17:23:40;29.80;;;23.90;;
43793;SDS011;29414;44.798;20.366;2022-11-20T17:27:40;34.40;;;27.30;;
43793;SDS011;29414;44.798;20.366;2022-11-20T17:31:41;34.73;;;26.50;;
43793;SDS011;29414;44.798;20.366;2022-11-20T17:35:41;32.70;;;25.60;;
43793;SDS011;29414;44.798;20.366;2022-11-20T17:39:42;32.73;;;24.67;;
43793;SDS011;29414;44.798;20.366;2022-11-20T17:43:43;34.40;;;24.83;;
43793;SDS011;29414;44.798;20.366;2022-11-20T17:47:44;30.20;;;23.00;;
43793;SDS011;29414;44.798;20.366;2022-11-20T17:51:45;30.20;;;24.23;;
43793;SDS011;29414;44.798;20.366;2022-11-20T17:55:53;32.40;;;24.87;;
43793;SDS011;29414;44.798;20.366;2022-11-20T18:00:12;31.83;;;23.90;;
43793;SDS011;29414;44.798;20.366;2022-11-20T18:04:12;32.27;;;24.33;;
43793;SDS011;29414;44.798;20.366;2022-11-20T18:08:13;31.37;;;22.90;;
43793;SDS011;29414;44.798;20.366;2022-11-20T18:12:13;29.70;;;23.73;;
43793;SDS011;29414;44.798;20.366;2022-11-20T18:16:13;32.23;;;24.80;;
43793;SDS011;29414;44.798;20.366;2022-11-20T18:20:14;32.40;;;24.33;;
43793;SDS011;29414;44.798;20.366;2022-11-20T18:24:14;32.03;;;25.13;;
43793;SDS011;29414;44.798;20.366;2022-11-20T18:28:14;36.57;;;27.87;;
43793;SDS011;29414;44.798;20.366;2022-11-20T18:32:15;32.07;;;25.90;;
43793;SDS011;29414;44.798;20.366;2022-11-20T18:36:16;39.60;;;31.73;;
43793;SDS011;29414;44.798;20.366;2022-11-20T18:40:17;35.63;;;28.80;;
43793;SDS011;29414;44.798;20.366;2022-11-20T18:44:18;33.97;;;27.00;;
43793;SDS011;29414;44.798;20.366;2022-11-20T18:48:48;35.33;;;26.93;;
43793;SDS011;29414;44.798;20.366;2022-11-20T18:52:48;33.90;;;27.43;;
43793;SDS011;29414;44.798;20.366;2022-11-20T18:56:49;33.10;;;25.80;;
43793;SDS011;29414;44.798;20.366;2022-11-20T19:00:50;29.43;;;24.40;;
43793;SDS011;29414;44.798;20.366;2022-11-20T19:04:50;28.97;;;23.50;;
43793;SDS011;29414;44.798;20.366;2022-11-20T19:08:50;29.03;;;22.93;;
43793;SDS011;29414;44.798;20.366;2022-11-20T19:12:51;27.33;;;22.13;;
43793;SDS011;29414;44.798;20.366;2022-11-20T19:16:51;28.87;;;23.20;;
43793;SDS011;29414;44.798;20.366;2022-11-20T19:20:52;30.63;;;23.63;;
43793;SDS011;29414;44.798;20.366;2022-11-20T19:24:52;29.40;;;21.70;;
43793;SDS011;29414;44.798;20.366;2022-11-20T19:28:52;25.93;;;22.43;;
43793;SDS011;29414;44.798;20.366;2022-11-20T19:32:53;28.77;;;22.93;;
43793;SDS011;29414;44.798;20.366;2022-11-20T19:36:53;29.03;;;21.10;;
43793;SDS011;29414;44.798;20.366;2022-11-20T19:40:53;29.60;;;25.07;;
43793;SDS011;29414;44.798;20.366;2022-11-20T19:44:54;31.23;;;25.40;;
43793;SDS011;29414;44.798;20.366;2022-11-20T19:48:55;29.40;;;23.27;;
43793;SDS011;29414;44.798;20.366;2022-11-20T19:52:55;30.30;;;24.43;;
43793;SDS011;29414;44.798;20.366;2022-11-20T19:56:55;28.80;;;22.70;;
43793;SDS011;29414;44.798;20.366;2022-11-20T20:00:56;28.70;;;23.40;;
43793;SDS011;29414;44.798;20.366;2022-11-20T20:04:56;28.30;;;23.07;;
43793;SDS011;29414;44.798;20.366;2022-11-20T20:09:04;28.47;;;21.40;;
43793;SDS011;29414;44.798;20.366;2022-11-20T20:13:04;26.80;;;21.83;;
43793;SDS011;29414;44.798;20.366;2022-11-20T20:17:05;30.63;;;22.27;;
43793;SDS011;29414;44.798;20.366;2022-11-20T20:21:06;26.60;;;21.13;;
43793;SDS011;29414;44.798;20.366;2022-11-20T20:25:06;25.03;;;20.93;;
43793;SDS011;29414;44.798;20.366;2022-11-20T20:29:07;25.93;;;20.57;;
43793;SDS011;29414;44.798;20.366;2022-11-20T20:33:07;26.80;;;22.03;;
43793;SDS011;29414;44.798;20.366;2022-11-20T20:37:07;28.27;;;20.73;;
43793;SDS011;29414;44.798;20.366;2022-11-20T20:41:08;22.80;;;18.23;;
43793;SDS011;29414;44.798;20.366;2022-11-20T20:45:08;25.17;;;19.50;;
43793;SDS011;29414;44.798;20.366;2022-11-20T20:49:10;26.83;;;20.63;;
43793;SDS011;29414;44.798;20.366;2022-11-20T20:53:10;27.57;;;21.67;;
43793;SDS011;29414;44.798;20.366;2022-11-20T20:57:10;25.77;;;21.97;;
43793;SDS011;29414;44.798;20.366;2022-11-20T21:01:12;23.40;;;19.33;;
43793;SDS011;29414;44.798;20.366;2022-11-20T21:05:12;27.17;;;19.57;;
43793;SDS011;29414;44.798;20.366;2022-11-20T21:09:12;24.63;;;19.17;;
43793;SDS011;29414;44.798;20.366;2022-11-20T21:13:13;23.20;;;18.57;;
43793;SDS011;29414;44.798;20.366;2022-11-20T21:17:13;25.40;;;18.70;;
43793;SDS011;29414;44.798;20.366;2022-11-20T21:21:14;27.27;;;18.83;;
43793;SDS011;29414;44.798;20.366;2022-11-20T21:25:34;23.53;;;18.27;;
43793;SDS011;29414;44.798;20.366;2022-11-20T21:29:35;24.73;;;19.60;;
43793;SDS011;29414;44.798;20.366;2022-11-20T21:33:36;24.23;;;18.67;;
43793;SDS011;29414;44.798;20.366;2022-11-20T21:37:36;24.13;;;18.27;;
43793;SDS011;29414;44.798;20.366;2022-11-20T21:41:37;25.13;;;19.17;;
43793;SDS011;29414;44.798;20.366;2022-11-20T21:45:37;26.27;;;20.67;;
43793;SDS011;29414;44.798;20.366;2022-11-20T21:49:37;24.33;;;19.13;;
43793;SDS011;29414;44.798;20.366;2022-11-20T21:53:38;25.83;;;18.60;;
43793;SDS011;29414;44.798;20.366;2022-11-20T21:57:38;26.73;;;20.17;;
43793;SDS011;29414;44.798;20.366;2022-11-20T22:01:38;24.70;;;20.27;;
43793;SDS011;29414;44.798;20.366;2022-11-20T22:05:39;27.00;;;21.17;;
43793;SDS011;29414;44.798;20.366;2022-11-20T22:09:39;30.00;;;22.90;;
43793;SDS011;29414;44.798;20.366;2022-11-20T22:13:39;30.73;;;23.27;;
43793;SDS011;29414;44.798;20.366;2022-11-20T22:17:58;31.83;;;23.40;;
43793;SDS011;29414;44.798;20.366;2022-11-20T22:22:14;35.03;;;23.97;;
43793;SDS011;29414;44.798;20.366;2022-11-20T22:26:15;36.83;;;23.50;;
43793;SDS011;29414;44.798;20.366;2022-11-20T22:30:16;29.07;;;21.90;;
43793;SDS011;29414;44.798;20.366;2022-11-20T22:34:16;28.20;;;21.43;;
43793;SDS011;29414;44.798;20.366;2022-11-20T22:38:16;27.50;;;21.20;;
43793;SDS011;29414;44.798;20.366;2022-11-20T22:42:17;26.37;;;20.97;;
43793;SDS011;29414;44.798;20.366;2022-11-20T22:46:17;27.57;;;21.30;;
43793;SDS011;29414;44.798;20.366;2022-11-20T22:50:18;25.37;;;20.20;;
43793;SDS011;29414;44.798;20.366;2022-11-20T22:54:18;26.07;;;21.67;;
43793;SDS011;29414;44.798;20.366;2022-11-20T22:58:18;26.83;;;20.40;;
43793;SDS011;29414;44.798;20.366;2022-11-20T23:02:18;25.43;;;20.20;;
43793;SDS011;29414;44.798;20.366;2022-11-20T23:06:19;27.17;;;19.38;;
43793;SDS011;29414;44.798;20.366;2022-11-20T23:10:20;28.83;;;22.27;;
43793;SDS011;29414;44.798;20.366;2022-11-20T23:14:20;26.43;;;20.33;;
43793;SDS011;29414;44.798;20.366;2022-11-20T23:18:20;25.03;;;20.17;;
43793;SDS011;29414;44.798;20.366;2022-11-20T23:22:20;26.37;;;20.43;;
43793;SDS011;29414;44.798;20.366;2022-11-20T23:26:22;27.30;;;20.63;;
43793;SDS011;29414;44.798;20.366;2022-11-20T23:30:23;26.87;;;20.57;;
43793;SDS011;29414;44.798;20.366;2022-11-20T23:34:23;29.03;;;22.47;;
43793;SDS011;29414;44.798;20.366;2022-11-20T23:38:23;26.30;;;20.50;;
43793;SDS011;29414;44.798;20.366;2022-11-20T23:42:23;28.93;;;20.50;;
43793;SDS011;29414;44.798;20.366;2022-11-20T23:46:24;29.38;;;21.63;;
43793;SDS011;29414;44.798;20.366;2022-11-20T23:50:24;24.67;;;20.33;;
43793;SDS011;29414;44.798;20.366;2022-11-20T23:54:24;28.23;;;21.03;;
43793;SDS011;29414;44.798;20.366;2022-11-20T23:58:25;28.07;;;19.80;;
